• Join FlightAware (Why Join?)
  • Login
  • US Flag 
03:16AM EDT


 

Airport Tracker/Info


-or-


 

Live Flight TrackerFlight Track Log ✈ N830QS ✈ 14-Aug-2013 ✈ KCOS - KMRY

Flight Track Log - Related Links

Times and Time Zones

All times are in EDT time to prevent confusion due to time zone crossing. See the N830QS flight status page for this flight to view local times or setup timezone preferences in your user account.

Time Position Orientation Groundspeed Altitude Reporting Facility
EDT Latitude Longitude Course Direction KTS MPH feet Rate Location/Type
06:06PM 38.6731 -104.6258 143° Southeast 257 296 11,400  Level Denver Center
06:07PM 38.5844 -104.5364 142° Southeast 313 360 13,600 1,920 Climbing Denver Center
06:08PM 38.5108 -104.4636 142° Southeast 342 394 15,900 2,100 Climbing Denver Center
06:09PM 38.4153 -104.4914 193° South 333 383 18,000 1,980 Climbing Denver Center
06:10PM 38.2990 -104.5292 288° West  Level FlightAware Approximate
06:10PM 38.3506 -104.5617 220° Southwest 337 388 20,000  Level Denver Center
06:12PM 38.3467 -104.6864 268° West 324 373 22,000 1,740 Climbing Denver Center
06:13PM 38.3536 -104.7994 275° West 331 381 23,700 1,680 Climbing Denver Center
06:14PM 38.3581 -104.9331 272° West 336 387 25,500 1,080 Climbing Denver Center
06:15PM 38.3625 -105.0519 273° West 344 396 26,000 240 Climbing Denver Center
06:16PM 38.3678 -105.2050 273° West 379 436 26,000  Level Denver Center
06:17PM 38.3725 -105.3397 273° West 393 452 26,100 1,020 Climbing Denver Center
06:18PM 38.3758 -105.4794 272° West 391 450 28,200 2,460 Climbing Denver Center
06:19PM 38.3794 -105.5919 272° West 325 374 31,200 1,800 Climbing Denver Center
06:20PM 38.3836 -105.7028 273° West 313 360 32,000 360 Climbing Denver Center
06:21PM 38.3867 -105.8397 272° West 335 386 32,000  Level Denver Center
06:22PM 38.3897 -105.9836 272° West 360 414 32,000  Level Denver Center
06:23PM 38.3775 -106.1100 263° West 373 429 32,000  Level Denver Center
06:24PM 38.3644 -106.2425 263° West 373 429 32,000  Level Denver Center
06:25PM 38.3544 -106.3753 265° West 374 430 32,000  Level Denver Center
06:26PM 38.3436 -106.5208 265° West 374 430 32,000  Level Denver Center
06:27PM 38.3331 -106.6461 264° West 372 428 32,000  Level Denver Center
06:28PM 38.3231 -106.7922 265° West 371 427 32,000  Level Denver Center
06:29PM 38.3286 -106.9550 273° West 372 428 32,000 720 Level Denver Center
06:30PM 38.3322 -107.0842 272° West 365 420 33,500 960 Climbing Denver Center
06:31PM 38.3353 -107.1983 272° West 346 398 34,000 240 Climbing Denver Center
06:32PM 38.3400 -107.3383 273° West 354 407 34,000  Level Denver Center
06:33PM 38.3428 -107.4631 272° West 365 420 34,000  Level Denver Center
06:34PM 38.3464 -107.6119 272° West 375 432 34,000  Level Denver Center
06:36PM 38.3497 -107.7375 272° West 373 429 34,000  Level Denver Center
06:37PM 38.3519 -107.8836 271° West 369 425 34,000 240 Level Denver Center
06:38PM 38.3556 -108.0078 272° West 368 423 34,600 1,260 Climbing Denver Center
06:39PM 38.3581 -108.1383 271° West 339 390 36,700 1,500 Climbing Denver Center
06:40PM 38.3608 -108.2411 272° West 313 360 38,000 540 Climbing Denver Center
06:41PM 38.3636 -108.3806 271° West 309 356 38,000  Level Denver Center
06:42PM 38.3650 -108.4939 271° West 327 376 38,000  Level Denver Center
06:43PM 38.3689 -108.6300 272° West 341 392 38,000  Level Denver Center
06:44PM 38.3700 -108.7464 271° West 342 394 38,000  Level Denver Center
06:45PM 38.3722 -108.8797 271° West 339 390 38,000  Level Denver Center
06:46PM 38.3736 -108.9942 271° West 338 389 38,000  Level Denver Center
06:47PM 38.3758 -109.1308 271° West 345 397 38,000  Level Denver Center
06:48PM 38.3769 -109.2494 271° West 348 400 38,000  Level Denver Center
06:49PM 38.3792 -109.4056 271° West 346 398 38,000  Level Denver Center
06:50PM 38.3803 -109.5236 271° West 345 397 38,000  Level Denver Center
06:51PM 38.3811 -109.6389 271° West 341 392 38,000  Level Denver Center
06:53PM 38.3822 -109.7747 271° West 344 396 38,000  Level Denver Center
06:54PM 38.3831 -109.9294 270° West 340 391 38,000  Level Denver Center
06:55PM 38.3831 -110.0456 270° West 340 391 38,000  Level Denver Center
06:56PM 38.3842 -110.1811 271° West 343 395 38,000  Level Denver Center
06:56PM 38.3844 -110.2597 270° West 344 396 38,000  Level Salt Lake Center
06:57PM 38.3858 -110.3778 271° West 347 399 38,000  Level Salt Lake Center
06:58PM 38.3856 -110.5144 270° West 346 398 38,000  Level Salt Lake Center
07:00PM 38.3856 -110.6328 270° West 347 399 38,000  Level Salt Lake Center
07:01PM 38.3861 -110.7706 270° West 349 402 38,000  Level Salt Lake Center
07:02PM 38.3858 -110.8889 270° West 349 402 38,000  Level Salt Lake Center
07:03PM 38.3858 -111.0042 270° West 346 398 38,000  Level Salt Lake Center
07:04PM 38.3853 -111.1514 270° West 349 402 38,000  Level Salt Lake Center
07:05PM 38.3850 -111.2739 270° West 347 399 38,000  Level Salt Lake Center
07:06PM 38.3836 -111.3978 269° West 350 403 38,000  Level Salt Lake Center
07:07PM 38.3831 -111.5211 270° West 350 403 38,000  Level Salt Lake Center
07:08PM 38.3822 -111.6450 270° West 352 405 38,000  Level Salt Lake Center
07:09PM 38.3811 -111.7683 269° West 350 403 38,000  Level Salt Lake Center
07:10PM 38.3792 -111.9178 269° West 354 407 38,000  Level Salt Lake Center
07:11PM 38.3775 -112.0411 269° West 350 403 38,000  Level Salt Lake Center
07:12PM 38.3767 -112.1647 270° West 351 404 38,000  Level Salt Lake Center
07:13PM 38.3747 -112.2881 269° West 350 403 38,000  Level Salt Lake Center
07:14PM 38.3722 -112.4117 269° West 351 404 38,000  Level Salt Lake Center
07:15PM 38.3703 -112.5600 269° West 352 405 38,000  Level Salt Lake Center
07:16PM 38.3678 -112.6844 269° West 353 406 38,000  Level Salt Lake Center
07:17PM 38.3653 -112.8092 269° West 353 406 38,000  Level Salt Lake Center
07:18PM 38.3625 -112.9339 268° West 354 407 38,000  Level Salt Lake Center
07:19PM 38.3589 -113.0583 268° West 354 407 38,000  Level Salt Lake Center
07:20PM 38.3461 -113.2081 264° West 356 410 38,000  Level Salt Lake Center
07:21PM 38.3369 -113.3331 265° West 355 409 38,000  Level Salt Lake Center
07:22PM 38.3281 -113.4567 265° West 354 407 38,000  Level Salt Lake Center
07:23PM 38.3178 -113.5831 264° West 357 411 38,000  Level Salt Lake Center
07:24PM 38.3078 -113.7075 264° West 357 411 38,000  Level Salt Lake Center
07:25PM 38.2983 -113.8317 265° West 355 409 38,000  Level Salt Lake Center
07:26PM 38.2861 -113.9822 264° West 357 411 38,000  Level Salt Lake Center
07:27PM 38.2753 -114.1069 264° West 357 411 38,000  Level Salt Lake Center
07:28PM 38.2664 -114.2333 265° West 358 412 38,000  Level Salt Lake Center
07:30PM 38.2533 -114.3583 262° West 358 412 38,000  Level Salt Lake Center
07:31PM 38.2447 -114.4839 265° West 359 413 38,000  Level Salt Lake Center
07:32PM 38.2378 -114.6097 266° West 357 411 38,000  Level Salt Lake Center
07:33PM 38.2278 -114.7636 265° West 364 419 38,000  Level Salt Lake Center
07:34PM 38.2206 -114.8897 266° West 360 414 38,000  Level Salt Lake Center
07:35PM 38.2139 -115.0161 266° West 360 414 38,000  Level Salt Lake Center
07:36PM 38.2042 -115.1428 264° West 361 415 38,000  Level Salt Lake Center
07:37PM 38.1956 -115.2689 265° West 360 414 38,000  Level Salt Lake Center
07:38PM 38.1856 -115.4153 265° West 362 417 38,000  Level Salt Lake Center
07:39PM 38.1775 -115.5419 265° West 361 415 38,000  Level Salt Lake Center
07:40PM 38.1689 -115.6689 265° West 362 417 38,000  Level Salt Lake Center
07:41PM 38.1603 -115.7961 265° West 362 417 38,000  Level Salt Lake Center
07:42PM 38.1508 -115.9231 265° West 362 417 38,000  Level Salt Lake Center
07:43PM 38.1394 -116.0767 265° West 364 419 38,000  Level Salt Lake Center
07:44PM 38.1303 -116.2042 265° West 363 418 38,000  Level Salt Lake Center
07:45PM 38.1208 -116.3319 265° West 363 418 38,000  Level Salt Lake Center
07:46PM 38.1106 -116.4611 264° West 366 421 38,000  Level Salt Lake Center
07:47PM 38.1011 -116.5897 265° West 366 421 38,000  Level Salt Lake Center
07:48PM 38.0908 -116.7189 264° West 367 422 38,000  Level Salt Lake Center
07:49PM 38.0783 -116.8742 264° West 368 423 38,000  Level Salt Lake Center
07:50PM 38.0669 -117.0017 264° West 364 419 38,000  Level Salt Lake Center
07:51PM 38.0481 -117.1308 260° West 372 428 38,000  Level Oakland Center
07:52PM 38.0069 -117.2553 247° West 372 428 38,000  Level Oakland Center
07:53PM 37.9658 -117.3758 247° West 368 423 38,000  Level Oakland Center
07:54PM 37.9250 -117.4944 246° West 366 421 38,000 -660 Level Oakland Center
07:55PM 37.8753 -117.6378 246° West 369 425 36,700 -1,680 Descending Oakland Center
07:56PM 37.8317 -117.7614 246° West 378 435 34,600 -1,320 Descending Oakland Center
07:57PM 37.7864 -117.8886 246° West 392 451 34,000 -300 Descending Oakland Center
07:59PM 37.7417 -118.0175 246° West 399 459 34,000  Level Oakland Center
08:00PM 37.6958 -118.1467 246° West 402 463 34,000  Level Oakland Center
08:01PM 37.6492 -118.2747 245° Southwest 401 461 34,000  Level Oakland Center
08:02PM 37.6042 -118.4011 246° West 398 458 34,000  Level Oakland Center
08:03PM 37.5583 -118.5272 245° Southwest 396 456 34,000  Level Oakland Center
08:04PM 37.5128 -118.6525 245° Southwest 394 453 34,000  Level Oakland Center
08:05PM 37.4581 -118.8028 245° Southwest 394 453 34,000  Level Oakland Center
08:06PM 37.4172 -118.9156 246° West 393 452 34,000 -480 Level Oakland Center
08:07PM 37.3722 -119.0400 246° West 393 452 33,100 -1,200 Descending Oakland Center
08:08PM 37.3256 -119.1669 245° Southwest 399 459 31,600 -1,620 Descending Oakland Center
08:09PM 37.2689 -119.3161 245° Southwest 397 457 29,800 -1,620 Descending Oakland Center
08:10PM 37.2239 -119.4394 245° Southwest 392 451 28,300 -1,500 Descending Oakland Center
08:11PM 37.1800 -119.5608 246° West 387 445 26,800 -1,500 Descending Oakland Center
08:12PM 37.1356 -119.6769 244° Southwest 375 432 25,300 -1,500 Descending Oakland Center
08:13PM 37.0925 -119.7917 245° Southwest 367 422 23,800 -1,500 Descending Oakland Center
08:14PM 37.0508 -119.9033 245° Southwest 357 411 22,300 -1,500 Descending Oakland Center
08:15PM 37.0086 -120.0122 244° Southwest 350 403 20,800 -1,500 Descending Oakland Center
08:16PM 36.9686 -120.1197 245° Southwest 346 398 19,300 -1,560 Descending Oakland Center
08:17PM 36.9253 -120.2319 244° Southwest 349 402 17,700 -1,680 Descending Oakland Center
08:18PM 36.8769 -120.3569 244° Southwest 330 380 15,900 -1,620 Descending Oakland Center
08:19PM 36.8369 -120.4614 244° Southwest 330 380 14,400 -1,080 Descending Oakland Center
08:20PM 36.8006 -120.5564 244° Southwest 318 366 13,800 -300 Descending Oakland Center
08:21PM 36.7617 -120.6567 244° Southwest 324 373 13,800 -120 Level Oakland Center
08:22PM 36.7228 -120.7594 245° Southwest 329 379 13,600 -900 Descending Oakland Center
08:23PM 36.6917 -120.8589 249° West 314 361 12,000 -1,740 Descending Oakland Center
08:24PM 36.6533 -120.9739 247° West 302 348 10,100 -1,080 Descending Oakland Center
08:25PM 36.6225 -121.0686 248° West 297 342 9,800 -660 Descending Oakland Center
08:26PM 36.5939 -121.1564 248° West 286 329 8,800 -1,020 Descending Oakland Center
08:27PM 36.5650 -121.2417 247° West 277 319 7,800 -1,020 Descending Oakland Center
08:28PM 36.5375 -121.3267 248° West 273 314 6,800 -960 Descending Oakland Center
08:29PM 36.5103 -121.4106 248° West 269 310 5,900 -420 Descending Oakland Center
08:30PM 36.4847 -121.4839 247° West 258 297 6,000 -180 Climbing Oakland Center
08:31PM 36.4839 -121.5428 269° West 229 264 5,600 -780 Descending Oakland Center
08:32PM 36.5097 -121.6228 292° West 213 245 4,500 -960 Descending Oakland Center
08:33PM 36.5244 -121.6725 290° West 182 209 3,700 -840 Descending Oakland Center
08:34PM 36.5394 -121.7125 295° West 146 168 2,800 -540 Descending Oakland Center
08:35PM 36.5531 -121.7503 294° West 142 163 2,600 -720 Descending Oakland Center
08:37PM 36.5667 -121.8000 289° West 109 125 1,200 -960 Descending Northern Cal TRACON
08:38PM 36.5833 -121.8333 302° West 109 125 500 -720 Descending Northern Cal TRACON